sensor_id;sensor_type;location;lat;lon;timestamp;P1;durP1;ratioP1;P2;durP2;ratioP2
20251;SDS011;10284;58.364;15.550;2023-11-21T00:00:57;12.55;;;7.72;;
20251;SDS011;10284;58.364;15.550;2023-11-21T00:03:23;12.70;;;7.30;;
20251;SDS011;10284;58.364;15.550;2023-11-21T00:05:49;15.15;;;8.13;;
20251;SDS011;10284;58.364;15.550;2023-11-21T00:08:14;11.82;;;7.82;;
20251;SDS011;10284;58.364;15.550;2023-11-21T00:10:40;12.10;;;7.45;;
20251;SDS011;10284;58.364;15.550;2023-11-21T00:13:05;12.73;;;7.63;;
20251;SDS011;10284;58.364;15.550;2023-11-21T00:15:30;13.35;;;7.57;;
20251;SDS011;10284;58.364;15.550;2023-11-21T00:17:56;13.52;;;7.32;;
20251;SDS011;10284;58.364;15.550;2023-11-21T00:20:21;14.43;;;8.07;;
20251;SDS011;10284;58.364;15.550;2023-11-21T00:22:47;11.48;;;6.68;;
20251;SDS011;10284;58.364;15.550;2023-11-21T00:25:12;11.00;;;7.40;;
20251;SDS011;10284;58.364;15.550;2023-11-21T00:27:40;12.75;;;7.80;;
20251;SDS011;10284;58.364;15.550;2023-11-21T00:30:05;13.77;;;8.00;;
20251;SDS011;10284;58.364;15.550;2023-11-21T00:32:31;13.73;;;8.73;;
20251;SDS011;10284;58.364;15.550;2023-11-21T00:34:57;12.88;;;8.52;;
20251;SDS011;10284;58.364;15.550;2023-11-21T00:37:22;17.30;;;9.32;;
20251;SDS011;10284;58.364;15.550;2023-11-21T00:39:49;14.52;;;8.13;;
20251;SDS011;10284;58.364;15.550;2023-11-21T00:42:14;18.25;;;8.77;;
20251;SDS011;10284;58.364;15.550;2023-11-21T00:44:39;11.43;;;7.65;;
20251;SDS011;10284;58.364;15.550;2023-11-21T00:47:05;15.10;;;8.55;;
20251;SDS011;10284;58.364;15.550;2023-11-21T00:49:30;16.45;;;9.23;;
20251;SDS011;10284;58.364;15.550;2023-11-21T00:51:56;12.93;;;7.72;;
20251;SDS011;10284;58.364;15.550;2023-11-21T00:54:23;14.93;;;8.43;;
20251;SDS011;10284;58.364;15.550;2023-11-21T00:56:48;16.27;;;9.05;;
20251;SDS011;10284;58.364;15.550;2023-11-21T00:59:14;15.57;;;9.02;;
20251;SDS011;10284;58.364;15.550;2023-11-21T01:01:39;14.60;;;8.40;;
20251;SDS011;10284;58.364;15.550;2023-11-21T01:04:05;14.25;;;8.55;;
20251;SDS011;10284;58.364;15.550;2023-11-21T01:06:31;13.90;;;9.02;;
20251;SDS011;10284;58.364;15.550;2023-11-21T01:08:57;15.50;;;9.38;;
20251;SDS011;10284;58.364;15.550;2023-11-21T01:11:23;17.10;;;9.70;;
20251;SDS011;10284;58.364;15.550;2023-11-21T01:13:48;16.15;;;9.82;;
20251;SDS011;10284;58.364;15.550;2023-11-21T01:16:13;18.90;;;10.10;;
20251;SDS011;10284;58.364;15.550;2023-11-21T01:18:39;17.52;;;10.38;;
20251;SDS011;10284;58.364;15.550;2023-11-21T01:21:04;17.88;;;9.80;;
20251;SDS011;10284;58.364;15.550;2023-11-21T01:23:30;18.23;;;9.95;;
20251;SDS011;10284;58.364;15.550;2023-11-21T01:25:55;17.92;;;9.57;;
20251;SDS011;10284;58.364;15.550;2023-11-21T01:28:21;17.52;;;10.18;;
20251;SDS011;10284;58.364;15.550;2023-11-21T01:30:47;16.77;;;10.23;;
20251;SDS011;10284;58.364;15.550;2023-11-21T01:33:13;18.88;;;9.90;;
20251;SDS011;10284;58.364;15.550;2023-11-21T01:35:40;19.38;;;10.25;;
20251;SDS011;10284;58.364;15.550;2023-11-21T01:38:06;22.42;;;10.93;;
20251;SDS011;10284;58.364;15.550;2023-11-21T01:40:33;16.75;;;9.95;;
20251;SDS011;10284;58.364;15.550;2023-11-21T01:42:59;19.90;;;10.80;;
20251;SDS011;10284;58.364;15.550;2023-11-21T01:45:24;19.95;;;10.98;;
20251;SDS011;10284;58.364;15.550;2023-11-21T01:47:50;18.88;;;10.18;;
20251;SDS011;10284;58.364;15.550;2023-11-21T01:50:16;18.83;;;10.65;;
20251;SDS011;10284;58.364;15.550;2023-11-21T01:52:47;18.50;;;9.80;;
20251;SDS011;10284;58.364;15.550;2023-11-21T01:55:13;20.98;;;10.73;;
20251;SDS011;10284;58.364;15.550;2023-11-21T01:57:43;19.17;;;10.32;;
20251;SDS011;10284;58.364;15.550;2023-11-21T02:00:08;18.83;;;10.40;;
20251;SDS011;10284;58.364;15.550;2023-11-21T02:02:47;17.50;;;10.20;;
20251;SDS011;10284;58.364;15.550;2023-11-21T02:05:17;20.83;;;11.07;;
20251;SDS011;10284;58.364;15.550;2023-11-21T02:07:43;19.27;;;10.32;;
20251;SDS011;10284;58.364;15.550;2023-11-21T02:10:10;21.17;;;10.70;;
20251;SDS011;10284;58.364;15.550;2023-11-21T02:12:39;18.58;;;10.40;;
20251;SDS011;10284;58.364;15.550;2023-11-21T02:15:05;19.33;;;10.13;;
20251;SDS011;10284;58.364;15.550;2023-11-21T02:17:35;17.58;;;9.45;;
20251;SDS011;10284;58.364;15.550;2023-11-21T02:20:00;18.42;;;10.25;;
20251;SDS011;10284;58.364;15.550;2023-11-21T02:22:30;20.50;;;10.25;;
20251;SDS011;10284;58.364;15.550;2023-11-21T02:24:56;20.23;;;10.15;;
20251;SDS011;10284;58.364;15.550;2023-11-21T02:27:22;17.17;;;10.02;;
20251;SDS011;10284;58.364;15.550;2023-11-21T02:29:48;18.08;;;10.75;;
20251;SDS011;10284;58.364;15.550;2023-11-21T02:32:14;15.55;;;9.68;;
20251;SDS011;10284;58.364;15.550;2023-11-21T02:34:39;19.70;;;10.10;;
20251;SDS011;10284;58.364;15.550;2023-11-21T02:37:05;16.42;;;9.82;;
20251;SDS011;10284;58.364;15.550;2023-11-21T02:39:31;19.42;;;10.63;;
20251;SDS011;10284;58.364;15.550;2023-11-21T02:41:56;18.85;;;10.38;;
20251;SDS011;10284;58.364;15.550;2023-11-21T02:44:22;17.63;;;9.63;;
20251;SDS011;10284;58.364;15.550;2023-11-21T02:46:47;16.90;;;9.82;;
20251;SDS011;10284;58.364;15.550;2023-11-21T02:49:12;17.13;;;10.13;;
20251;SDS011;10284;58.364;15.550;2023-11-21T02:51:38;17.45;;;10.05;;
20251;SDS011;10284;58.364;15.550;2023-11-21T02:54:04;17.30;;;10.00;;
20251;SDS011;10284;58.364;15.550;2023-11-21T02:56:32;16.00;;;9.57;;
20251;SDS011;10284;58.364;15.550;2023-11-21T02:58:59;16.55;;;9.77;;
20251;SDS011;10284;58.364;15.550;2023-11-21T03:01:25;19.15;;;10.18;;
20251;SDS011;10284;58.364;15.550;2023-11-21T03:03:51;15.50;;;9.27;;
20251;SDS011;10284;58.364;15.550;2023-11-21T03:06:17;15.43;;;9.27;;
20251;SDS011;10284;58.364;15.550;2023-11-21T03:08:45;13.80;;;8.82;;
20251;SDS011;10284;58.364;15.550;2023-11-21T03:11:10;15.25;;;8.82;;
20251;SDS011;10284;58.364;15.550;2023-11-21T03:13:37;15.68;;;8.70;;
20251;SDS011;10284;58.364;15.550;2023-11-21T03:16:04;16.05;;;9.18;;
20251;SDS011;10284;58.364;15.550;2023-11-21T03:18:30;13.30;;;9.20;;
20251;SDS011;10284;58.364;15.550;2023-11-21T03:20:56;15.07;;;9.05;;
20251;SDS011;10284;58.364;15.550;2023-11-21T03:23:22;16.08;;;9.68;;
20251;SDS011;10284;58.364;15.550;2023-11-21T03:25:47;14.63;;;8.93;;
20251;SDS011;10284;58.364;15.550;2023-11-21T03:28:12;16.27;;;9.55;;
20251;SDS011;10284;58.364;15.550;2023-11-21T03:30:38;14.90;;;9.45;;
20251;SDS011;10284;58.364;15.550;2023-11-21T03:33:03;14.98;;;9.02;;
20251;SDS011;10284;58.364;15.550;2023-11-21T03:35:28;14.70;;;8.60;;
20251;SDS011;10284;58.364;15.550;2023-11-21T03:37:54;16.15;;;9.68;;
20251;SDS011;10284;58.364;15.550;2023-11-21T03:40:19;16.13;;;9.32;;
20251;SDS011;10284;58.364;15.550;2023-11-21T03:42:46;15.10;;;8.88;;
20251;SDS011;10284;58.364;15.550;2023-11-21T03:45:12;13.75;;;8.90;;
20251;SDS011;10284;58.364;15.550;2023-11-21T03:47:37;15.57;;;9.23;;
20251;SDS011;10284;58.364;15.550;2023-11-21T03:50:03;15.75;;;9.65;;
20251;SDS011;10284;58.364;15.550;2023-11-21T03:52:28;17.52;;;9.07;;
20251;SDS011;10284;58.364;15.550;2023-11-21T03:54:54;16.77;;;9.45;;
20251;SDS011;10284;58.364;15.550;2023-11-21T03:57:20;16.75;;;9.60;;
20251;SDS011;10284;58.364;15.550;2023-11-21T03:59:46;18.27;;;10.13;;
20251;SDS011;10284;58.364;15.550;2023-11-21T04:02:11;18.08;;;9.75;;
20251;SDS011;10284;58.364;15.550;2023-11-21T04:04:37;16.35;;;9.18;;
20251;SDS011;10284;58.364;15.550;2023-11-21T04:07:02;17.20;;;9.70;;
20251;SDS011;10284;58.364;15.550;2023-11-21T04:09:28;15.77;;;9.43;;
20251;SDS011;10284;58.364;15.550;2023-11-21T04:11:53;16.60;;;9.05;;
20251;SDS011;10284;58.364;15.550;2023-11-21T04:14:19;15.25;;;9.05;;
20251;SDS011;10284;58.364;15.550;2023-11-21T04:16:45;14.77;;;8.77;;
20251;SDS011;10284;58.364;15.550;2023-11-21T04:19:10;14.70;;;8.60;;
20251;SDS011;10284;58.364;15.550;2023-11-21T04:21:36;14.77;;;8.07;;
20251;SDS011;10284;58.364;15.550;2023-11-21T04:24:02;12.80;;;8.30;;
20251;SDS011;10284;58.364;15.550;2023-11-21T04:26:27;12.30;;;8.32;;
20251;SDS011;10284;58.364;15.550;2023-11-21T04:28:53;14.45;;;8.52;;
20251;SDS011;10284;58.364;15.550;2023-11-21T04:31:18;12.70;;;7.88;;
20251;SDS011;10284;58.364;15.550;2023-11-21T04:33:43;15.93;;;9.10;;
20251;SDS011;10284;58.364;15.550;2023-11-21T04:36:10;16.23;;;8.45;;
20251;SDS011;10284;58.364;15.550;2023-11-21T04:38:35;12.85;;;8.05;;
20251;SDS011;10284;58.364;15.550;2023-11-21T04:41:01;15.32;;;8.13;;
20251;SDS011;10284;58.364;15.550;2023-11-21T04:43:26;12.25;;;7.55;;
20251;SDS011;10284;58.364;15.550;2023-11-21T04:45:51;11.75;;;7.88;;
20251;SDS011;10284;58.364;15.550;2023-11-21T04:48:17;12.05;;;7.53;;
20251;SDS011;10284;58.364;15.550;2023-11-21T04:50:42;11.80;;;7.97;;
20251;SDS011;10284;58.364;15.550;2023-11-21T04:53:08;12.48;;;7.82;;
20251;SDS011;10284;58.364;15.550;2023-11-21T04:55:33;12.15;;;7.90;;
20251;SDS011;10284;58.364;15.550;2023-11-21T04:57:58;11.77;;;8.25;;
20251;SDS011;10284;58.364;15.550;2023-11-21T05:00:24;11.82;;;7.78;;
20251;SDS011;10284;58.364;15.550;2023-11-21T05:02:49;12.43;;;8.05;;
20251;SDS011;10284;58.364;15.550;2023-11-21T05:05:15;12.20;;;8.00;;
20251;SDS011;10284;58.364;15.550;2023-11-21T05:07:40;13.68;;;8.00;;
20251;SDS011;10284;58.364;15.550;2023-11-21T05:10:06;11.13;;;7.53;;
20251;SDS011;10284;58.364;15.550;2023-11-21T05:12:40;10.88;;;7.78;;
20251;SDS011;10284;58.364;15.550;2023-11-21T05:15:08;10.90;;;7.05;;
20251;SDS011;10284;58.364;15.550;2023-11-21T05:17:38;10.93;;;7.00;;
20251;SDS011;10284;58.364;15.550;2023-11-21T05:20:07;10.85;;;7.05;;
20251;SDS011;10284;58.364;15.550;2023-11-21T05:22:34;12.98;;;7.75;;
20251;SDS011;10284;58.364;15.550;2023-11-21T05:25:00;11.48;;;7.57;;
20251;SDS011;10284;58.364;15.550;2023-11-21T05:27:26;11.05;;;6.82;;
20251;SDS011;10284;58.364;15.550;2023-11-21T05:29:51;10.10;;;6.82;;
20251;SDS011;10284;58.364;15.550;2023-11-21T05:32:16;8.57;;;6.38;;
20251;SDS011;10284;58.364;15.550;2023-11-21T05:34:42;12.55;;;6.82;;
20251;SDS011;10284;58.364;15.550;2023-11-21T05:37:08;11.45;;;6.40;;
20251;SDS011;10284;58.364;15.550;2023-11-21T05:39:33;9.75;;;6.40;;
20251;SDS011;10284;58.364;15.550;2023-11-21T05:41:58;9.35;;;6.22;;
20251;SDS011;10284;58.364;15.550;2023-11-21T05:44:25;10.77;;;6.47;;
20251;SDS011;10284;58.364;15.550;2023-11-21T05:46:50;9.73;;;6.38;;
20251;SDS011;10284;58.364;15.550;2023-11-21T05:49:16;11.15;;;7.07;;
20251;SDS011;10284;58.364;15.550;2023-11-21T05:51:41;8.55;;;5.85;;
20251;SDS011;10284;58.364;15.550;2023-11-21T05:54:07;9.27;;;6.35;;
20251;SDS011;10284;58.364;15.550;2023-11-21T05:56:33;9.13;;;6.22;;
20251;SDS011;10284;58.364;15.550;2023-11-21T05:58:58;9.73;;;6.53;;
20251;SDS011;10284;58.364;15.550;2023-11-21T06:01:24;9.50;;;6.43;;
20251;SDS011;10284;58.364;15.550;2023-11-21T06:03:53;10.70;;;6.60;;
20251;SDS011;10284;58.364;15.550;2023-11-21T06:06:19;12.00;;;6.55;;
20251;SDS011;10284;58.364;15.550;2023-11-21T06:08:47;12.48;;;6.82;;
20251;SDS011;10284;58.364;15.550;2023-11-21T06:11:13;9.75;;;6.18;;
20251;SDS011;10284;58.364;15.550;2023-11-21T06:13:39;8.68;;;6.10;;
20251;SDS011;10284;58.364;15.550;2023-11-21T06:16:04;10.05;;;6.30;;
20251;SDS011;10284;58.364;15.550;2023-11-21T06:18:30;9.85;;;6.35;;
20251;SDS011;10284;58.364;15.550;2023-11-21T06:20:55;11.13;;;6.85;;
20251;SDS011;10284;58.364;15.550;2023-11-21T06:23:21;10.73;;;6.43;;
20251;SDS011;10284;58.364;15.550;2023-11-21T06:25:46;10.80;;;7.10;;
20251;SDS011;10284;58.364;15.550;2023-11-21T06:28:11;11.05;;;6.88;;
20251;SDS011;10284;58.364;15.550;2023-11-21T06:30:37;9.65;;;6.65;;
20251;SDS011;10284;58.364;15.550;2023-11-21T06:33:03;12.77;;;7.20;;
20251;SDS011;10284;58.364;15.550;2023-11-21T06:35:28;9.02;;;6.25;;
20251;SDS011;10284;58.364;15.550;2023-11-21T06:37:55;9.60;;;5.75;;
20251;SDS011;10284;58.364;15.550;2023-11-21T06:40:20;10.38;;;6.40;;
20251;SDS011;10284;58.364;15.550;2023-11-21T06:42:46;9.40;;;6.07;;
20251;SDS011;10284;58.364;15.550;2023-11-21T06:45:12;9.65;;;5.93;;
20251;SDS011;10284;58.364;15.550;2023-11-21T06:47:38;9.82;;;6.65;;
20251;SDS011;10284;58.364;15.550;2023-11-21T06:50:03;11.52;;;6.25;;
20251;SDS011;10284;58.364;15.550;2023-11-21T06:52:29;12.30;;;6.45;;
20251;SDS011;10284;58.364;15.550;2023-11-21T06:54:54;11.88;;;7.13;;
20251;SDS011;10284;58.364;15.550;2023-11-21T06:57:20;9.25;;;5.38;;
20251;SDS011;10284;58.364;15.550;2023-11-21T06:59:45;10.55;;;4.95;;
20251;SDS011;10284;58.364;15.550;2023-11-21T07:02:11;10.65;;;5.75;;
20251;SDS011;10284;58.364;15.550;2023-11-21T07:04:36;8.05;;;4.85;;
20251;SDS011;10284;58.364;15.550;2023-11-21T07:07:02;10.73;;;5.68;;
20251;SDS011;10284;58.364;15.550;2023-11-21T07:09:28;9.80;;;5.68;;
20251;SDS011;10284;58.364;15.550;2023-11-21T07:11:54;11.20;;;5.63;;
20251;SDS011;10284;58.364;15.550;2023-11-21T07:14:20;11.05;;;5.38;;
20251;SDS011;10284;58.364;15.550;2023-11-21T07:16:46;10.32;;;5.70;;
20251;SDS011;10284;58.364;15.550;2023-11-21T07:19:11;9.20;;;5.30;;
20251;SDS011;10284;58.364;15.550;2023-11-21T07:21:37;11.00;;;6.18;;
20251;SDS011;10284;58.364;15.550;2023-11-21T07:24:04;10.70;;;6.30;;
20251;SDS011;10284;58.364;15.550;2023-11-21T07:26:31;13.85;;;6.40;;
20251;SDS011;10284;58.364;15.550;2023-11-21T07:28:56;11.68;;;5.80;;
20251;SDS011;10284;58.364;15.550;2023-11-21T07:31:22;11.68;;;6.07;;
20251;SDS011;10284;58.364;15.550;2023-11-21T07:33:49;13.20;;;6.45;;
20251;SDS011;10284;58.364;15.550;2023-11-21T07:36:15;11.60;;;6.38;;
20251;SDS011;10284;58.364;15.550;2023-11-21T07:38:41;14.07;;;6.72;;
20251;SDS011;10284;58.364;15.550;2023-11-21T07:41:07;12.13;;;6.78;;
20251;SDS011;10284;58.364;15.550;2023-11-21T07:43:35;14.90;;;7.28;;
20251;SDS011;10284;58.364;15.550;2023-11-21T07:46:01;15.70;;;7.20;;
20251;SDS011;10284;58.364;15.550;2023-11-21T07:48:28;12.00;;;7.20;;
20251;SDS011;10284;58.364;15.550;2023-11-21T07:50:57;12.23;;;6.55;;
20251;SDS011;10284;58.364;15.550;2023-11-21T07:53:25;15.93;;;7.43;;
20251;SDS011;10284;58.364;15.550;2023-11-21T07:55:53;13.07;;;7.03;;
20251;SDS011;10284;58.364;15.550;2023-11-21T07:58:19;14.15;;;7.82;;
20251;SDS011;10284;58.364;15.550;2023-11-21T08:00:44;13.65;;;7.15;;
20251;SDS011;10284;58.364;15.550;2023-11-21T08:03:10;14.13;;;7.80;;
20251;SDS011;10284;58.364;15.550;2023-11-21T08:05:36;14.93;;;7.47;;
20251;SDS011;10284;58.364;15.550;2023-11-21T08:08:01;12.60;;;7.47;;
20251;SDS011;10284;58.364;15.550;2023-11-21T08:10:27;16.52;;;7.43;;
20251;SDS011;10284;58.364;15.550;2023-11-21T08:12:52;14.25;;;7.82;;
20251;SDS011;10284;58.364;15.550;2023-11-21T08:15:18;15.00;;;8.32;;
20251;SDS011;10284;58.364;15.550;2023-11-21T08:17:46;18.10;;;8.27;;
20251;SDS011;10284;58.364;15.550;2023-11-21T08:20:11;13.73;;;7.90;;
20251;SDS011;10284;58.364;15.550;2023-11-21T08:22:37;14.98;;;7.90;;
20251;SDS011;10284;58.364;15.550;2023-11-21T08:25:05;16.45;;;7.22;;
20251;SDS011;10284;58.364;15.550;2023-11-21T08:27:32;15.48;;;8.25;;
20251;SDS011;10284;58.364;15.550;2023-11-21T08:29:59;17.83;;;8.23;;
20251;SDS011;10284;58.364;15.550;2023-11-21T08:32:25;16.30;;;8.82;;
20251;SDS011;10284;58.364;15.550;2023-11-21T08:34:50;13.88;;;7.95;;
20251;SDS011;10284;58.364;15.550;2023-11-21T08:37:16;14.93;;;8.88;;
20251;SDS011;10284;58.364;15.550;2023-11-21T08:39:43;13.45;;;8.35;;
20251;SDS011;10284;58.364;15.550;2023-11-21T08:42:09;16.77;;;8.30;;
20251;SDS011;10284;58.364;15.550;2023-11-21T08:44:34;15.95;;;8.85;;
20251;SDS011;10284;58.364;15.550;2023-11-21T08:47:00;18.30;;;9.63;;
20251;SDS011;10284;58.364;15.550;2023-11-21T08:49:25;17.08;;;8.93;;
20251;SDS011;10284;58.364;15.550;2023-11-21T08:51:52;17.50;;;8.98;;
20251;SDS011;10284;58.364;15.550;2023-11-21T08:54:20;19.27;;;9.73;;
20251;SDS011;10284;58.364;15.550;2023-11-21T08:56:46;20.25;;;9.68;;
20251;SDS011;10284;58.364;15.550;2023-11-21T08:59:11;18.17;;;9.70;;
20251;SDS011;10284;58.364;15.550;2023-11-21T09:01:45;19.13;;;9.63;;
20251;SDS011;10284;58.364;15.550;2023-11-21T09:04:11;16.30;;;9.23;;
20251;SDS011;10284;58.364;15.550;2023-11-21T09:06:37;20.67;;;9.43;;
20251;SDS011;10284;58.364;15.550;2023-11-21T09:09:03;17.50;;;9.77;;
20251;SDS011;10284;58.364;15.550;2023-11-21T09:11:30;17.85;;;9.13;;
20251;SDS011;10284;58.364;15.550;2023-11-21T09:13:58;18.83;;;9.18;;
20251;SDS011;10284;58.364;15.550;2023-11-21T09:16:28;16.48;;;9.18;;
20251;SDS011;10284;58.364;15.550;2023-11-21T09:18:53;18.67;;;9.65;;
20251;SDS011;10284;58.364;15.550;2023-11-21T09:21:19;19.58;;;10.25;;
20251;SDS011;10284;58.364;15.550;2023-11-21T09:23:44;17.65;;;9.05;;
20251;SDS011;10284;58.364;15.550;2023-11-21T09:26:09;14.57;;;8.25;;
20251;SDS011;10284;58.364;15.550;2023-11-21T09:28:35;12.80;;;7.82;;
20251;SDS011;10284;58.364;15.550;2023-11-21T09:31:03;19.63;;;9.57;;
20251;SDS011;10284;58.364;15.550;2023-11-21T09:33:29;15.55;;;8.98;;
20251;SDS011;10284;58.364;15.550;2023-11-21T09:35:55;17.58;;;9.25;;
20251;SDS011;10284;58.364;15.550;2023-11-21T09:38:20;18.05;;;8.75;;
20251;SDS011;10284;58.364;15.550;2023-11-21T09:40:46;14.15;;;8.35;;
20251;SDS011;10284;58.364;15.550;2023-11-21T09:43:15;16.95;;;9.40;;
20251;SDS011;10284;58.364;15.550;2023-11-21T09:45:44;17.02;;;8.68;;
20251;SDS011;10284;58.364;15.550;2023-11-21T09:48:12;15.65;;;8.73;;
20251;SDS011;10284;58.364;15.550;2023-11-21T09:50:40;14.77;;;8.48;;
20251;SDS011;10284;58.364;15.550;2023-11-21T09:53:16;11.63;;;7.07;;
20251;SDS011;10284;58.364;15.550;2023-11-21T09:55:46;14.23;;;7.93;;
20251;SDS011;10284;58.364;15.550;2023-11-21T09:58:13;15.57;;;8.55;;
20251;SDS011;10284;58.364;15.550;2023-11-21T10:00:43;14.80;;;8.88;;
20251;SDS011;10284;58.364;15.550;2023-11-21T10:03:10;13.80;;;7.53;;
20251;SDS011;10284;58.364;15.550;2023-11-21T10:05:36;17.05;;;9.20;;
20251;SDS011;10284;58.364;15.550;2023-11-21T10:08:02;15.88;;;8.25;;
20251;SDS011;10284;58.364;15.550;2023-11-21T10:10:29;14.52;;;8.70;;
20251;SDS011;10284;58.364;15.550;2023-11-21T10:12:57;15.35;;;9.18;;
20251;SDS011;10284;58.364;15.550;2023-11-21T10:15:28;18.52;;;8.88;;
20251;SDS011;10284;58.364;15.550;2023-11-21T10:17:54;16.42;;;8.98;;
20251;SDS011;10284;58.364;15.550;2023-11-21T10:20:20;14.43;;;8.35;;
20251;SDS011;10284;58.364;15.550;2023-11-21T10:22:46;13.27;;;8.25;;
20251;SDS011;10284;58.364;15.550;2023-11-21T10:25:12;17.42;;;9.20;;
20251;SDS011;10284;58.364;15.550;2023-11-21T10:27:39;13.40;;;8.50;;
20251;SDS011;10284;58.364;15.550;2023-11-21T10:30:06;16.40;;;8.30;;
20251;SDS011;10284;58.364;15.550;2023-11-21T10:32:33;13.65;;;7.88;;
20251;SDS011;10284;58.364;15.550;2023-11-21T10:34:59;14.82;;;8.38;;
20251;SDS011;10284;58.364;15.550;2023-11-21T10:37:34;12.88;;;8.43;;
20251;SDS011;10284;58.364;15.550;2023-11-21T10:40:00;13.50;;;8.18;;
20251;SDS011;10284;58.364;15.550;2023-11-21T10:42:26;12.95;;;7.88;;
20251;SDS011;10284;58.364;15.550;2023-11-21T10:44:52;13.75;;;7.88;;
20251;SDS011;10284;58.364;15.550;2023-11-21T10:47:18;12.30;;;8.07;;
20251;SDS011;10284;58.364;15.550;2023-11-21T10:49:44;13.00;;;8.18;;
20251;SDS011;10284;58.364;15.550;2023-11-21T10:52:12;12.68;;;7.45;;
20251;SDS011;10284;58.364;15.550;2023-11-21T10:54:42;14.23;;;7.40;;
20251;SDS011;10284;58.364;15.550;2023-11-21T10:57:10;13.25;;;8.00;;
20251;SDS011;10284;58.364;15.550;2023-11-21T10:59:40;13.43;;;8.18;;
20251;SDS011;10284;58.364;15.550;2023-11-21T11:02:18;14.05;;;8.45;;
20251;SDS011;10284;58.364;15.550;2023-11-21T11:04:50;13.32;;;8.40;;
20251;SDS011;10284;58.364;15.550;2023-11-21T11:07:17;15.50;;;9.13;;
20251;SDS011;10284;58.364;15.550;2023-11-21T11:09:42;15.10;;;8.90;;
20251;SDS011;10284;58.364;15.550;2023-11-21T11:12:10;14.30;;;8.40;;
20251;SDS011;10284;58.364;15.550;2023-11-21T11:14:36;13.75;;;8.02;;
20251;SDS011;10284;58.364;15.550;2023-11-21T11:17:05;12.23;;;7.90;;
20251;SDS011;10284;58.364;15.550;2023-11-21T11:19:33;14.02;;;8.20;;
20251;SDS011;10284;58.364;15.550;2023-11-21T11:25:13;12.30;;;7.85;;
20251;SDS011;10284;58.364;15.550;2023-11-21T11:28:10;11.00;;;7.13;;
20251;SDS011;10284;58.364;15.550;2023-11-21T11:36:13;13.70;;;7.68;;
20251;SDS011;10284;58.364;15.550;2023-11-21T11:38:44;15.25;;;7.90;;
20251;SDS011;10284;58.364;15.550;2023-11-21T11:41:10;13.68;;;8.18;;
20251;SDS011;10284;58.364;15.550;2023-11-21T11:43:37;11.43;;;7.55;;
20251;SDS011;10284;58.364;15.550;2023-11-21T11:46:09;12.65;;;7.75;;
20251;SDS011;10284;58.364;15.550;2023-11-21T11:48:39;13.18;;;8.15;;
20251;SDS011;10284;58.364;15.550;2023-11-21T11:51:05;11.13;;;6.97;;
20251;SDS011;10284;58.364;15.550;2023-11-21T11:53:43;11.25;;;7.50;;
20251;SDS011;10284;58.364;15.550;2023-11-21T11:56:27;10.43;;;6.47;;
20251;SDS011;10284;58.364;15.550;2023-11-21T11:58:56;10.77;;;6.57;;
20251;SDS011;10284;58.364;15.550;2023-11-21T12:01:24;12.93;;;7.10;;
20251;SDS011;10284;58.364;15.550;2023-11-21T12:06:50;11.93;;;7.03;;
20251;SDS011;10284;58.364;15.550;2023-11-21T12:09:20;10.70;;;6.97;;
20251;SDS011;10284;58.364;15.550;2023-11-21T12:11:47;9.88;;;7.18;;
20251;SDS011;10284;58.364;15.550;2023-11-21T12:14:13;10.10;;;7.00;;
20251;SDS011;10284;58.364;15.550;2023-11-21T12:16:39;11.10;;;7.20;;
20251;SDS011;10284;58.364;15.550;2023-11-21T12:19:05;11.15;;;7.35;;
20251;SDS011;10284;58.364;15.550;2023-11-21T12:21:30;10.00;;;7.07;;
20251;SDS011;10284;58.364;15.550;2023-11-21T12:23:57;12.07;;;7.25;;
20251;SDS011;10284;58.364;15.550;2023-11-21T12:26:23;11.93;;;7.50;;
20251;SDS011;10284;58.364;15.550;2023-11-21T12:28:52;7.95;;;6.20;;
20251;SDS011;10284;58.364;15.550;2023-11-21T12:31:24;9.13;;;6.35;;
20251;SDS011;10284;58.364;15.550;2023-11-21T12:33:49;10.18;;;6.50;;
20251;SDS011;10284;58.364;15.550;2023-11-21T12:36:15;9.48;;;6.65;;
20251;SDS011;10284;58.364;15.550;2023-11-21T12:38:41;11.43;;;6.55;;
20251;SDS011;10284;58.364;15.550;2023-11-21T12:41:07;9.95;;;6.75;;
20251;SDS011;10284;58.364;15.550;2023-11-21T12:43:33;8.27;;;5.82;;
20251;SDS011;10284;58.364;15.550;2023-11-21T12:46:06;6.72;;;5.80;;
20251;SDS011;10284;58.364;15.550;2023-11-21T12:48:32;6.57;;;5.38;;
20251;SDS011;10284;58.364;15.550;2023-11-21T12:50:57;6.53;;;5.15;;
20251;SDS011;10284;58.364;15.550;2023-11-21T12:53:25;7.13;;;5.30;;
20251;SDS011;10284;58.364;15.550;2023-11-21T12:55:51;5.80;;;4.95;;
20251;SDS011;10284;58.364;15.550;2023-11-21T12:58:16;8.88;;;5.97;;
20251;SDS011;10284;58.364;15.550;2023-11-21T13:00:42;9.93;;;6.03;;
20251;SDS011;10284;58.364;15.550;2023-11-21T13:03:10;8.85;;;5.85;;
20251;SDS011;10284;58.364;15.550;2023-11-21T13:05:38;8.65;;;5.70;;
20251;SDS011;10284;58.364;15.550;2023-11-21T13:08:05;8.20;;;5.60;;
20251;SDS011;10284;58.364;15.550;2023-11-21T13:10:38;10.00;;;6.22;;
20251;SDS011;10284;58.364;15.550;2023-11-21T13:13:05;9.15;;;6.07;;
20251;SDS011;10284;58.364;15.550;2023-11-21T13:15:33;8.15;;;6.15;;
20251;SDS011;10284;58.364;15.550;2023-11-21T13:18:01;7.65;;;6.00;;
20251;SDS011;10284;58.364;15.550;2023-11-21T13:20:27;8.18;;;6.43;;
20251;SDS011;10284;58.364;15.550;2023-11-21T13:22:55;10.07;;;5.80;;
20251;SDS011;10284;58.364;15.550;2023-11-21T13:25:25;7.18;;;5.47;;
20251;SDS011;10284;58.364;15.550;2023-11-21T13:27:56;8.65;;;5.85;;
20251;SDS011;10284;58.364;15.550;2023-11-21T13:30:23;9.45;;;6.15;;
20251;SDS011;10284;58.364;15.550;2023-11-21T13:32:52;9.77;;;6.30;;
20251;SDS011;10284;58.364;15.550;2023-11-21T13:35:22;9.57;;;6.25;;
20251;SDS011;10284;58.364;15.550;2023-11-21T13:37:55;6.95;;;5.95;;
20251;SDS011;10284;58.364;15.550;2023-11-21T13:40:24;9.02;;;6.05;;
20251;SDS011;10284;58.364;15.550;2023-11-21T13:42:55;9.18;;;5.80;;
20251;SDS011;10284;58.364;15.550;2023-11-21T13:45:24;7.47;;;6.20;;
20251;SDS011;10284;58.364;15.550;2023-11-21T13:47:53;7.10;;;5.85;;
20251;SDS011;10284;58.364;15.550;2023-11-21T13:50:23;7.93;;;5.93;;
20251;SDS011;10284;58.364;15.550;2023-11-21T13:52:52;6.82;;;5.05;;
20251;SDS011;10284;58.364;15.550;2023-11-21T13:55:18;6.78;;;4.72;;
20251;SDS011;10284;58.364;15.550;2023-11-21T13:57:44;5.70;;;4.82;;
20251;SDS011;10284;58.364;15.550;2023-11-21T14:00:14;5.95;;;4.45;;
20251;SDS011;10284;58.364;15.550;2023-11-21T14:02:59;6.18;;;4.57;;
20251;SDS011;10284;58.364;15.550;2023-11-21T14:05:26;6.05;;;4.55;;
20251;SDS011;10284;58.364;15.550;2023-11-21T14:07:54;6.13;;;4.60;;
20251;SDS011;10284;58.364;15.550;2023-11-21T14:10:21;5.53;;;4.93;;
20251;SDS011;10284;58.364;15.550;2023-11-21T14:12:49;6.47;;;4.50;;
20251;SDS011;10284;58.364;15.550;2023-11-21T14:15:15;7.10;;;5.38;;
20251;SDS011;10284;58.364;15.550;2023-11-21T14:17:44;5.50;;;4.40;;
20251;SDS011;10284;58.364;15.550;2023-11-21T14:20:09;7.10;;;4.78;;
20251;SDS011;10284;58.364;15.550;2023-11-21T14:22:41;5.80;;;4.72;;
20251;SDS011;10284;58.364;15.550;2023-11-21T14:25:06;6.30;;;4.80;;
20251;SDS011;10284;58.364;15.550;2023-11-21T14:27:32;7.13;;;5.70;;
20251;SDS011;10284;58.364;15.550;2023-11-21T14:29:58;6.22;;;5.00;;
20251;SDS011;10284;58.364;15.550;2023-11-21T14:32:24;9.50;;;5.80;;